Time;durP1;ratioP1;P1;durP2;ratioP2;P2;SDS_P1;SDS_P2;PMS_P1;PMS_P2;Temp;Humidity;BMP_temperature;BMP_pressure;BME280_temperature;BME280_humidity;BME280_pressure;Samples;Min_cycle;Max_cycle;Signal;HPM_P1;HPM_P2
2022/04/29 00:00:43;;;;;;;;;;;;;;;20.56;40.91;102864.44;5055148;28;19917;-84
2022/04/29 00:03:09;;;;;;;;;;;;;;;20.56;40.89;102857.03;5037968;28;19936;-84
2022/04/29 00:05:35;;;;;;;;;;;;;;;20.55;41.02;102860.03;5055076;28;19971;-85
2022/04/29 00:08:01;;;;;;;;;;;;;;;20.55;41.12;102860.03;5053728;28;19966;-84
2022/04/29 00:10:26;;;;;;;;;;;;;;;20.53;40.97;102858.34;5053716;28;19921;-85
2022/04/29 00:12:53;;;;;;;;;;;;;;;20.52;40.88;102853.94;5055809;28;20401;-85
2022/04/29 00:15:19;;;;;;;;;;;;;;;20.51;40.83;102851.44;5037299;28;19928;-85
2022/04/29 00:17:45;;;;;;;;;;;;;;;20.51;40.83;102851.44;5053567;28;19916;-84
2022/04/29 00:20:10;;;;;;;;;;;;;;;20.50;41.07;102850.63;5053524;28;19983;-85
2022/04/29 00:22:36;;;;;;;;;;;;;;;20.49;41.10;102843.50;5053561;28;19932;-84
2022/04/29 00:25:02;;;;;;;;;;;;;;;20.49;41.07;102851.72;5054278;28;19917;-85
2022/04/29 00:27:27;;;;;;;;;;;;;;;20.48;40.81;102843.72;5054620;28;19916;-84
2022/04/29 00:29:52;;;;;;;;;;;;;;;20.47;40.87;102840.16;5053681;28;19917;-81
2022/04/29 00:32:18;;;;;;;;;;;;;;;20.47;41.08;102837.41;5054506;28;20070;-85
2022/04/29 00:34:43;;;;;;;;;;;;;;;20.46;40.77;102840.41;5052917;28;20017;-85
2022/04/29 00:37:10;;;;;;;;;;;;;;;20.46;40.90;102838.53;5037345;28;19928;-87
2022/04/29 00:39:35;;;;;;;;;;;;;;;20.45;41.10;102842.34;5054488;28;19928;-85
2022/04/29 00:42:09;;;;;;;;;;;;;;;20.44;41.02;102831.63;5055008;28;19916;-86
2022/04/29 00:44:37;;;;;;;;;;;;;;;20.44;40.83;102835.19;5053490;28;19921;-86
2022/04/29 00:47:02;;;;;;;;;;;;;;;20.44;40.88;102831.63;5053028;28;19917;-84
2022/04/29 00:49:28;;;;;;;;;;;;;;;20.43;40.81;102832.69;5053369;28;19921;-85
2022/04/29 00:51:53;;;;;;;;;;;;;;;20.42;41.10;102831.88;5052882;28;19927;-85
2022/04/29 00:54:26;;;;;;;;;;;;;;;20.42;40.97;102825.56;5052946;28;20345;-85
2022/04/29 00:56:52;;;;;;;;;;;;;;;20.41;40.69;102822.00;5052902;28;19916;-85
2022/04/29 00:59:29;;;;;;;;;;;;;;;20.41;40.90;102815.66;5054090;28;19969;-85
2022/04/29 01:01:55;;;;;;;;;;;;;;;20.40;40.82;102811.25;5053657;28;19967;-85
2022/04/29 01:04:37;;;;;;;;;;;;;;;20.40;40.90;102811.25;5052791;28;19917;-85
2022/04/29 01:07:03;;;;;;;;;;;;;;;20.39;40.77;102796.72;5052963;28;19917;-86
2022/04/29 01:09:28;;;;;;;;;;;;;;;20.38;41.04;102792.28;5052712;28;20019;-85
2022/04/29 01:11:54;;;;;;;;;;;;;;;20.38;40.99;102808.75;5036330;28;19928;-85
2022/04/29 01:14:20;;;;;;;;;;;;;;;20.39;41.02;102806.88;5052823;28;20422;-86
2022/04/29 01:16:46;;;;;;;;;;;;;;;20.38;40.99;102807.94;5053892;28;20364;-85
2022/04/29 01:19:11;;;;;;;;;;;;;;;20.38;41.01;102802.44;5036294;28;19964;-85
2022/04/29 01:21:36;;;;;;;;;;;;;;;20.37;40.94;102793.41;5055260;28;19917;-85
2022/04/29 01:24:01;;;;;;;;;;;;;;;20.37;41.01;102789.84;5037091;28;19921;-85
2022/04/29 01:26:27;;;;;;;;;;;;;;;20.37;41.18;102800.81;5052980;28;19921;-84
2022/04/29 01:28:52;;;;;;;;;;;;;;;20.35;40.89;102801.06;5052532;28;20046;-84
2022/04/29 01:31:21;;;;;;;;;;;;;;;20.36;40.80;102802.72;5052454;28;19975;-84
2022/04/29 01:33:47;;;;;;;;;;;;;;;20.35;41.00;102798.31;5053541;28;20349;-85
2022/04/29 01:36:12;;;;;;;;;;;;;;;20.35;40.95;102794.75;5036163;28;19928;-85
2022/04/29 01:38:38;;;;;;;;;;;;;;;20.34;40.88;102796.66;5054247;28;19925;-86
2022/04/29 01:41:05;;;;;;;;;;;;;;;20.34;40.89;102802.16;5053629;28;19924;-85
2022/04/29 01:43:30;;;;;;;;;;;;;;;20.34;40.89;102784.88;5053584;28;19917;-86
2022/04/29 01:45:55;;;;;;;;;;;;;;;20.33;41.03;102784.00;5052397;28;20284;-85
2022/04/29 01:48:21;;;;;;;;;;;;;;;20.34;40.80;102782.13;5035683;28;19932;-85
2022/04/29 01:50:47;;;;;;;;;;;;;;;20.32;41.08;102783.19;5036031;28;20341;-85
2022/04/29 01:53:13;;;;;;;;;;;;;;;20.33;40.82;102786.75;5052572;28;19928;-85
2022/04/29 01:55:38;;;;;;;;;;;;;;;20.30;41.08;102782.63;5035475;28;20292;-85
2022/04/29 01:58:03;;;;;;;;;;;;;;;20.31;41.13;102781.53;5053128;28;19970;-85
2022/04/29 02:00:29;;;;;;;;;;;;;;;20.31;41.07;102780.72;5052076;28;20007;-85
2022/04/29 02:02:55;;;;;;;;;;;;;;;20.31;40.91;102781.53;5052108;28;19924;-85
2022/04/29 02:05:21;;;;;;;;;;;;;;;20.30;41.08;102777.13;5037748;28;19921;-86
2022/04/29 02:07:46;;;;;;;;;;;;;;;20.30;40.84;102781.78;5055933;28;20312;-86
2022/04/29 02:10:11;;;;;;;;;;;;;;;20.29;40.91;102777.41;5056268;28;20038;-85
2022/04/29 02:12:36;;;;;;;;;;;;;;;20.29;40.88;102789.19;5057182;28;19916;-85
2022/04/29 02:15:02;;;;;;;;;;;;;;;20.29;41.15;102794.69;5055959;28;20388;-85
2022/04/29 02:17:27;;;;;;;;;;;;;;;20.29;40.95;102791.94;5055916;28;20292;-85
2022/04/29 02:19:52;;;;;;;;;;;;;;;20.27;41.15;102791.38;5056455;28;19920;-85
2022/04/29 02:22:17;;;;;;;;;;;;;;;20.27;41.05;102794.13;5056137;28;19975;-86
2022/04/29 02:24:43;;;;;;;;;;;;;;;20.26;41.16;102786.97;5055842;28;19921;-85
2022/04/29 02:27:08;;;;;;;;;;;;;;;20.27;41.02;102794.13;5056930;28;19963;-84
2022/04/29 02:29:34;;;;;;;;;;;;;;;20.25;40.97;102774.34;5039303;28;19921;-85
2022/04/29 02:31:59;;;;;;;;;;;;;;;20.26;40.94;102775.16;5055630;28;19924;-85
2022/04/29 02:34:25;;;;;;;;;;;;;;;20.25;40.79;102771.59;5056836;28;20341;-85
2022/04/29 02:36:51;;;;;;;;;;;;;;;20.24;40.99;102778.16;5055574;28;19924;-85
2022/04/29 02:39:16;;;;;;;;;;;;;;;20.25;41.20;102787.22;5055246;28;19924;-85
2022/04/29 02:41:41;;;;;;;;;;;;;;;20.23;41.17;102776.50;5056730;28;19924;-85
2022/04/29 02:44:07;;;;;;;;;;;;;;;20.24;41.03;102764.44;5039286;28;20360;-85
2022/04/29 02:46:32;;;;;;;;;;;;;;;20.23;40.86;102757.28;5055980;28;20014;-85
2022/04/29 02:48:58;;;;;;;;;;;;;;;20.23;41.06;102757.28;5038756;28;20033;-84
2022/04/29 02:51:23;;;;;;;;;;;;;;;20.23;40.95;102748.22;5056853;28;19916;-84
2022/04/29 02:53:48;;;;;;;;;;;;;;;20.23;41.10;102753.72;5038847;28;20316;-85
2022/04/29 02:56:14;;;;;;;;;;;;;;;20.22;41.11;102752.91;5055208;28;19920;-85
2022/04/29 02:58:39;;;;;;;;;;;;;;;20.22;41.06;102754.81;5055058;28;19921;-85
2022/04/29 03:01:04;;;;;;;;;;;;;;;20.21;40.82;102758.63;5055105;28;19928;-84
2022/04/29 03:03:29;;;;;;;;;;;;;;;20.21;40.93;102761.38;5038355;28;19921;-85
2022/04/29 03:05:55;;;;;;;;;;;;;;;20.20;41.00;102763.31;5038441;28;20357;-85
2022/04/29 03:08:20;;;;;;;;;;;;;;;20.21;40.86;102764.13;5055302;28;19921;-85
2022/04/29 03:10:46;;;;;;;;;;;;;;;20.19;41.09;102764.41;5038236;28;19932;-85
2022/04/29 03:13:12;;;;;;;;;;;;;;;20.20;41.19;102760.56;5055039;28;19966;-85
2022/04/29 03:15:37;;;;;;;;;;;;;;;20.20;41.00;102771.53;5055161;28;20020;-85
2022/04/29 03:18:18;;;;;;;;;;;;;;;20.19;41.06;102766.31;5053829;28;19924;-85
2022/04/29 03:20:44;;;;;;;;;;;;;;;20.19;40.93;102749.84;5041092;28;19928;-85
2022/04/29 03:23:09;;;;;;;;;;;;;;;20.18;41.27;102751.75;5055224;28;20277;-85
2022/04/29 03:25:35;;;;;;;;;;;;;;;20.17;40.94;102752.84;5054653;28;19924;-86
2022/04/29 03:28:00;;;;;;;;;;;;;;;20.16;41.01;102748.47;5054983;28;19964;-85
2022/04/29 03:30:26;;;;;;;;;;;;;;;20.17;40.95;102755.59;5055928;28;19921;-85
2022/04/29 03:32:52;;;;;;;;;;;;;;;20.17;40.87;102757.50;5055974;28;20312;-84
2022/04/29 03:35:18;;;;;;;;;;;;;;;20.16;41.04;102751.22;5060297;28;20003;-86
2022/04/29 03:37:43;;;;;;;;;;;;;;;20.16;41.01;102744.88;5048049;28;20372;-85
2022/04/29 03:40:08;;;;;;;;;;;;;;;20.15;41.05;102755.00;5061890;28;19921;-85
2022/04/29 03:42:34;;;;;;;;;;;;;;;20.15;40.92;102759.69;5046684;28;19921;-85
2022/04/29 03:44:59;;;;;;;;;;;;;;;20.15;41.10;102755.00;5044384;28;19921;-85
2022/04/29 03:47:24;;;;;;;;;;;;;;;20.14;41.08;102747.88;5042186;28;19920;-88
2022/04/29 03:49:49;;;;;;;;;;;;;;;20.14;41.09;102742.41;5038877;28;19921;-84
2022/04/29 03:52:15;;;;;;;;;;;;;;;20.14;41.16;102741.56;5054538;28;19921;-85
2022/04/29 03:54:40;;;;;;;;;;;;;;;20.14;40.97;102739.66;5037647;28;19959;-86
2022/04/29 03:57:06;;;;;;;;;;;;;;;20.13;41.05;102737.97;5037628;28;19983;-86
2022/04/29 03:59:31;;;;;;;;;;;;;;;20.13;41.05;102737.97;5038116;28;19920;-85
2022/04/29 04:01:56;;;;;;;;;;;;;;;20.12;41.00;102741.81;5054272;28;19921;-85
2022/04/29 04:04:22;;;;;;;;;;;;;;;20.12;40.97;102739.06;5037707;28;19925;-86
2022/04/29 04:06:50;;;;;;;;;;;;;;;20.12;41.24;102738.25;5054092;28;19928;-86
2022/04/29 04:09:16;;;;;;;;;;;;;;;20.11;40.87;102726.47;5054149;28;20325;-85
2022/04/29 04:11:41;;;;;;;;;;;;;;;20.11;40.87;102731.94;5037483;28;19920;-85
2022/04/29 04:14:07;;;;;;;;;;;;;;;20.12;41.08;102735.50;5055032;28;20272;-85
2022/04/29 04:16:32;;;;;;;;;;;;;;;20.11;41.14;102726.47;5053737;28;19917;-85
2022/04/29 04:18:57;;;;;;;;;;;;;;;20.11;41.00;102726.47;5053713;28;20027;-84
2022/04/29 04:21:23;;;;;;;;;;;;;;;20.10;41.04;102730.28;5040583;28;19971;-84
2022/04/29 04:23:48;;;;;;;;;;;;;;;20.09;41.15;102729.44;5053611;28;19921;-84
2022/04/29 04:26:14;;;;;;;;;;;;;;;20.10;41.13;102731.09;5053876;28;19999;-84
2022/04/29 04:28:42;;;;;;;;;;;;;;;20.09;40.91;102732.19;5054561;28;19920;-83
2022/04/29 04:31:07;;;;;;;;;;;;;;;20.09;41.00;102725.88;5053607;28;19966;-86
2022/04/29 04:33:33;;;;;;;;;;;;;;;20.08;40.91;102733.28;5036377;28;19951;-84
2022/04/29 04:35:58;;;;;;;;;;;;;;;20.07;40.87;102731.63;5037206;28;19920;-84
2022/04/29 04:38:24;;;;;;;;;;;;;;;20.07;40.83;102734.38;5037475;28;19925;-84
2022/04/29 04:40:49;;;;;;;;;;;;;;;20.08;41.03;102729.69;5053234;28;20361;-85
2022/04/29 04:43:14;;;;;;;;;;;;;;;20.07;40.99;102731.63;5036930;28;19928;-85
2022/04/29 04:45:40;;;;;;;;;;;;;;;20.07;41.01;102728.88;5036481;28;20077;-85
2022/04/29 04:48:05;;;;;;;;;;;;;;;20.06;41.15;102729.16;5053255;28;20016;-85
2022/04/29 04:50:31;;;;;;;;;;;;;;;20.06;41.07;102729.97;5036731;28;20379;-85
2022/04/29 04:52:56;;;;;;;;;;;;;;;20.05;41.03;102728.31;5053244;28;20007;-87
2022/04/29 04:55:21;;;;;;;;;;;;;;;20.05;41.25;102733.78;5036944;28;19921;-86
2022/04/29 04:57:46;;;;;;;;;;;;;;;20.05;41.14;102735.72;5036361;28;19921;-86
2022/04/29 05:00:12;;;;;;;;;;;;;;;20.05;41.12;102733.78;5052933;28;19964;-85
2022/04/29 05:02:41;;;;;;;;;;;;;;;20.04;41.13;102737.63;5054571;28;19970;-86
2022/04/29 05:05:07;;;;;;;;;;;;;;;20.04;40.96;102731.31;5054537;28;19987;-85
2022/04/29 05:07:32;;;;;;;;;;;;;;;20.04;41.20;102734.88;5069549;28;19916;-85
2022/04/29 05:09:58;;;;;;;;;;;;;;;20.03;40.82;102730.50;5036768;28;19982;-86
2022/04/29 05:12:23;;;;;;;;;;;;;;;20.03;41.03;102730.50;5053102;28;20329;-86
2022/04/29 05:14:48;;;;;;;;;;;;;;;20.03;41.01;102726.91;5036042;28;19960;-85
2022/04/29 05:17:13;;;;;;;;;;;;;;;20.03;41.16;102729.66;5054366;28;19921;-80
2022/04/29 05:19:39;;;;;;;;;;;;;;;20.03;41.10;102726.91;5036042;28;20412;-86
2022/04/29 05:22:04;;;;;;;;;;;;;;;20.02;40.93;102723.34;5036135;28;19921;-85
2022/04/29 05:24:30;;;;;;;;;;;;;;;20.01;40.97;102729.91;5052761;28;19974;-87
2022/04/29 05:26:55;;;;;;;;;;;;;;;20.02;41.06;102723.34;5052688;28;20388;-86
2022/04/29 05:29:21;;;;;;;;;;;;;;;20.02;41.06;102728.81;5052708;28;19916;-86
2022/04/29 05:31:46;;;;;;;;;;;;;;;20.02;40.96;102726.06;5052611;28;20331;-86
2022/04/29 05:34:12;;;;;;;;;;;;;;;20.02;40.88;102731.56;5053677;28;19925;-87
2022/04/29 05:36:37;;;;;;;;;;;;;;;20.02;41.15;102725.25;5053700;28;19927;-86
2022/04/29 05:44:31;;;;;;;;;;;;;;;20.01;41.04;102740.06;5058149;28;19998;-86
2022/04/29 05:46:56;;;;;;;;;;;;;;;20.01;40.79;102732.66;5056453;28;19994;-85
2022/04/29 05:49:21;;;;;;;;;;;;;;;20.01;41.10;102742.81;5039811;28;19921;-86
2022/04/29 05:51:46;;;;;;;;;;;;;;;20.00;41.09;102739.22;5040024;28;19925;-86
2022/04/29 05:54:12;;;;;;;;;;;;;;;20.00;40.94;102741.13;5040352;28;19921;-86
2022/04/29 05:56:37;;;;;;;;;;;;;;;20.00;40.97;102743.88;5039748;28;19928;-84
2022/04/29 05:59:02;;;;;;;;;;;;;;;20.00;40.83;102743.88;5057849;28;19921;-86
2022/04/29 06:01:27;;;;;;;;;;;;;;;20.00;40.95;102752.94;5056978;28;19927;-87
2022/04/29 06:03:53;;;;;;;;;;;;;;;20.00;41.05;102757.59;5056255;28;19971;-87
2022/04/29 06:06:18;;;;;;;;;;;;;;;19.99;41.03;102762.25;5056349;28;19921;-87
2022/04/29 06:08:43;;;;;;;;;;;;;;;19.99;40.77;102759.53;5039637;28;19921;-87
2022/04/29 06:11:09;;;;;;;;;;;;;;;19.99;40.99;102762.25;5056108;28;20442;-87
2022/04/29 06:13:35;;;;;;;;;;;;;;;19.98;41.11;102757.88;5055868;28;19920;-86
2022/04/29 06:16:00;;;;;;;;;;;;;;;19.98;40.84;102757.03;5056220;28;20250;-87
2022/04/29 06:18:26;;;;;;;;;;;;;;;19.98;41.11;102754.28;5039537;28;19932;-87
2022/04/29 06:20:53;;;;;;;;;;;;;;;19.98;40.99;102757.03;5039200;28;19933;-86
2022/04/29 06:23:18;;;;;;;;;;;;;;;19.97;41.08;102752.63;5057125;28;20368;-87
2022/04/29 06:25:43;;;;;;;;;;;;;;;19.97;40.92;102758.13;5055846;28;19935;-86
2022/04/29 06:28:08;;;;;;;;;;;;;;;19.96;41.19;102748.22;5055947;28;19921;-86
2022/04/29 06:30:34;;;;;;;;;;;;;;;19.97;41.19;102758.13;5039721;28;19928;-86
2022/04/29 06:32:59;;;;;;;;;;;;;;;19.97;41.01;102766.34;5055804;28;20368;-88
2022/04/29 06:35:25;;;;;;;;;;;;;;;19.96;41.14;102765.53;5038622;28;19979;-86
2022/04/29 06:37:50;;;;;;;;;;;;;;;19.97;41.11;102774.56;5055656;28;19921;-86
2022/04/29 06:40:15;;;;;;;;;;;;;;;19.96;41.05;102773.75;5056634;28;19916;-87
2022/04/29 06:42:45;;;;;;;;;;;;;;;19.97;41.34;102777.31;5055403;28;19917;-87
2022/04/29 06:45:10;;;;;;;;;;;;;;;19.97;41.18;102778.13;5055698;28;19921;-87
2022/04/29 06:47:35;;;;;;;;;;;;;;;19.96;41.12;102772.91;5038671;28;20406;-87
2022/04/29 06:50:01;;;;;;;;;;;;;;;19.96;40.96;102773.75;5038625;28;19921;-87
2022/04/29 06:52:26;;;;;;;;;;;;;;;19.96;41.18;102776.50;5055193;28;20369;-87
2022/04/29 06:54:51;;;;;;;;;;;;;;;19.96;41.02;102792.97;5038741;28;20037;-86
2022/04/29 06:57:16;;;;;;;;;;;;;;;19.96;41.19;102790.22;5038758;28;19925;-87
2022/04/29 06:59:42;;;;;;;;;;;;;;;19.97;40.94;102783.63;5055039;28;19917;-87
2022/04/29 07:02:07;;;;;;;;;;;;;;;19.97;40.94;102785.56;5055082;28;19917;-86
2022/04/29 07:04:32;;;;;;;;;;;;;;;19.98;41.10;102789.94;5055068;28;19921;-88
2022/04/29 07:06:58;;;;;;;;;;;;;;;19.97;41.30;102780.88;5055131;28;19931;-87
2022/04/29 07:09:26;;;;;;;;;;;;;;;19.97;41.30;102780.88;5038936;28;20357;-87
2022/04/29 07:11:52;;;;;;;;;;;;;;;19.97;41.18;102778.13;5056267;28;19917;-87
2022/04/29 07:14:18;;;;;;;;;;;;;;;19.98;41.21;102778.97;5037883;28;20353;-87
2022/04/29 07:16:43;;;;;;;;;;;;;;;19.98;41.30;102784.44;5037898;28;19963;-87
2022/04/29 07:19:09;;;;;;;;;;;;;;;19.97;41.24;102780.88;5057500;28;19927;-87
2022/04/29 07:21:34;;;;;;;;;;;;;;;19.98;41.10;102788.03;5059803;28;20377;-87
2022/04/29 07:23:59;;;;;;;;;;;;;;;19.98;41.26;102784.44;5056548;28;20062;-87
2022/04/29 07:26:24;;;;;;;;;;;;;;;19.99;40.99;102791.63;5056130;28;19920;-88
2022/04/29 07:28:50;;;;;;;;;;;;;;;19.98;41.23;102781.72;5055148;28;19979;-86
2022/04/29 07:31:15;;;;;;;;;;;;;;;19.99;41.10;102783.38;5054723;28;19928;-87
2022/04/29 07:33:40;;;;;;;;;;;;;;;19.99;41.25;102781.47;5054071;28;19921;-87
2022/04/29 07:41:45;;;;;;;;;;;;;;;20.00;41.19;102774.88;5054834;28;19927;-87
2022/04/29 07:44:11;;;;;;;;;;;;;;;20.00;40.80;102780.38;5054475;28;20066;-87
2022/04/29 07:46:36;;;;;;;;;;;;;;;20.00;41.17;102777.63;5054282;28;19967;-91
2022/04/29 07:49:05;;;;;;;;;;;;;;;20.00;41.22;102779.53;5054288;28;19960;-86
2022/04/29 07:51:30;;;;;;;;;;;;;;;20.01;41.10;102782.03;5054718;28;19921;-85
2022/04/29 07:53:58;;;;;;;;;;;;;;;20.01;41.00;102782.03;5054074;28;19947;-85
2022/04/29 07:56:23;;;;;;;;;;;;;;;20.01;40.83;102775.72;5054089;28;19916;-84
2022/04/29 07:58:49;;;;;;;;;;;;;;;20.01;41.11;102778.47;5054283;28;20020;-83
2022/04/29 08:01:16;;;;;;;;;;;;;;;20.02;41.28;102780.13;5054675;28;20435;-87
2022/04/29 08:03:41;;;;;;;;;;;;;;;20.02;41.05;102777.38;5053669;28;19966;-86
2022/04/29 08:06:07;;;;;;;;;;;;;;;20.03;41.33;102773.53;5054970;28;19925;-85
2022/04/29 08:08:32;;;;;;;;;;;;;;;20.04;41.15;102780.69;5053989;28;20003;-85
2022/04/29 08:10:58;;;;;;;;;;;;;;;20.03;41.40;102782.63;5053940;28;20011;-85
2022/04/29 08:13:24;;;;;;;;;;;;;;;20.04;41.27;102784.25;5037573;28;20020;-85
2022/04/29 08:15:50;;;;;;;;;;;;;;;20.04;41.22;102784.25;5037163;28;20403;-85
2022/04/29 08:18:16;;;;;;;;;;;;;;;20.05;41.26;102785.09;5055081;28;19917;-84
2022/04/29 08:20:41;;;;;;;;;;;;;;;20.05;41.42;102783.16;5053593;28;20034;-83
2022/04/29 08:23:07;;;;;;;;;;;;;;;20.05;41.52;102783.16;5036950;28;20039;-83
2022/04/29 08:25:32;;;;;;;;;;;;;;;20.06;41.54;102784.03;5053572;28;19971;-87
2022/04/29 08:28:00;;;;;;;;;;;;;;;20.06;41.54;102782.09;5054325;28;20011;-87
2022/04/29 08:30:27;;;;;;;;;;;;;;;20.07;41.51;102781.00;5036893;28;20460;-81
2022/04/29 08:32:52;;;;;;;;;;;;;;;20.09;41.48;102778.00;5054880;28;20277;-82
2022/04/29 08:35:17;;;;;;;;;;;;;;;20.10;41.52;102783.22;5054983;28;20384;-81
2022/04/29 08:37:43;;;;;;;;;;;;;;;20.12;41.49;102782.97;5053239;28;19924;-82
2022/04/29 08:40:09;;;;;;;;;;;;;;;20.14;41.33;102782.72;5053528;28;19920;-83
2022/04/29 08:42:38;;;;;;;;;;;;;;;20.16;41.63;102786.03;5036861;28;19921;-81
2022/04/29 08:45:12;;;;;;;;;;;;;;;20.17;41.72;102777.53;5036892;28;19921;-83
2022/04/29 08:47:41;;;;;;;;;;;;;;;20.19;41.95;102783.59;5053106;28;19925;-82
2022/04/29 08:50:17;;;;;;;;;;;;;;;20.19;41.88;102791.00;5052975;28;19927;-82
2022/04/29 08:52:43;;;;;;;;;;;;;;;20.20;42.03;102793.47;5054345;28;19971;-86
2022/04/29 09:00:38;;;;;;;;;;;;;;;20.18;42.21;102800.31;5054890;28;19978;-82
2022/04/29 09:03:04;;;;;;;;;;;;;;;20.19;41.99;102805.56;5054068;28;19978;-82
2022/04/29 09:05:31;;;;;;;;;;;;;;;20.19;41.86;102810.22;5036293;28;20327;-83
2022/04/29 09:08:00;;;;;;;;;;;;;;;20.19;41.82;102802.00;5052810;28;19917;-83
2022/04/29 09:10:26;;;;;;;;;;;;;;;20.19;41.97;102802.81;5058669;28;20261;-82
2022/04/29 09:12:52;;;;;;;;;;;;;;;20.20;42.05;102806.38;5059784;28;19924;-85
2022/04/29 09:15:18;;;;;;;;;;;;;;;20.20;42.01;102814.63;5058120;28;19924;-83
2022/04/29 09:17:44;;;;;;;;;;;;;;;20.19;42.06;102819.28;5056076;28;19929;-84
2022/04/29 09:20:13;;;;;;;;;;;;;;;20.19;42.04;102813.78;5054552;28;20003;-84
2022/04/29 09:22:39;;;;;;;;;;;;;;;20.19;41.86;102811.06;5052556;28;20369;-83
2022/04/29 09:25:04;;;;;;;;;;;;;;;20.18;41.82;102809.38;5053891;28;19959;-84
2022/04/29 09:27:30;;;;;;;;;;;;;;;20.18;41.99;102803.06;5035957;28;19921;-84
2022/04/29 09:30:01;;;;;;;;;;;;;;;20.19;41.72;102802.00;5035992;28;20375;-82
2022/04/29 09:32:46;;;;;;;;;;;;;;;20.19;41.95;102799.25;5053449;28;19923;-82
2022/04/29 09:35:11;;;;;;;;;;;;;;;20.18;41.86;102792.91;5052252;28;19920;-79
2022/04/29 09:39:26;;;;;;;;;;;;;;;20.18;41.98;102789.34;5052361;28;19931;-80
2022/04/29 09:40:22;;;;;;;;;;;;;;;20.19;41.82;102788.28;5053266;28;20004;-78
2022/04/29 09:42:47;;;;;;;;;;;;;;;20.19;41.82;102791.00;5053589;28;19956;-77
2022/04/29 09:45:13;;;;;;;;;;;;;;;20.17;41.94;102785.78;5052130;28;19944;-78
2022/04/29 09:47:39;;;;;;;;;;;;;;;20.18;41.63;102776.44;5035640;28;19920;-80
2022/04/29 09:50:05;;;;;;;;;;;;;;;20.19;41.79;102777.28;5052121;28;20042;-78
2022/04/29 09:52:31;;;;;;;;;;;;;;;20.19;41.95;102778.13;5053745;28;19971;-78
2022/04/29 09:55:28;;;;;;;;;;;;;;;20.19;41.81;102778.13;5053318;28;20165;-78
2022/04/29 09:57:59;;;;;;;;;;;;;;;20.20;41.93;102773.47;5029809;28;19940;-76
2022/04/29 10:00:25;;;;;;;;;;;;;;;20.19;42.15;102772.63;5052373;28;20058;-80
2022/04/29 10:02:50;;;;;;;;;;;;;;;20.20;41.96;102778.94;5052046;28;20015;-79
2022/04/29 10:05:16;;;;;;;;;;;;;;;20.19;42.18;102778.13;5035457;28;19928;-79
2022/04/29 10:07:42;;;;;;;;;;;;;;;20.20;42.12;102781.69;5035244;28;20373;-81
2022/04/29 10:10:09;;;;;;;;;;;;;;;20.20;41.92;102778.94;5035686;28;19925;-81
2022/04/29 10:12:34;;;;;;;;;;;;;;;20.20;41.88;102777.03;5052199;28;19952;-83
2022/04/29 10:15:09;;;;;;;;;;;;;;;20.20;41.94;102774.28;5034971;28;20439;-84
2022/04/29 10:23:04;;;;;;;;;;;;;;;20.21;42.11;102754.00;5054082;28;20063;-85
2022/04/29 10:25:34;;;;;;;;;;;;;;;20.22;41.86;102750.16;5053274;28;19924;-84
2022/04/29 10:28:00;;;;;;;;;;;;;;;20.23;41.96;102750.97;5055583;28;20007;-84
2022/04/29 10:30:35;;;;;;;;;;;;;;;20.24;41.83;102758.13;5055487;28;19917;-83
2022/04/29 10:33:08;;;;;;;;;;;;;;;20.22;42.05;102755.66;5057585;28;19924;-86
2022/04/29 10:35:40;;;;;;;;;;;;;;;20.23;42.18;102756.47;5054962;28;19921;-83
2022/04/29 10:38:15;;;;;;;;;;;;;;;20.23;41.98;102759.22;5057124;28;19924;-82
2022/04/29 10:40:41;;;;;;;;;;;;;;;20.23;42.05;102767.44;5055560;28;19916;-84
2022/04/29 10:43:07;;;;;;;;;;;;;;;20.23;42.17;102757.28;5056319;28;20460;-84
2022/04/29 10:45:33;;;;;;;;;;;;;;;20.23;41.97;102765.53;5038552;28;20011;-83
2022/04/29 10:47:58;;;;;;;;;;;;;;;20.23;42.11;102764.69;5055088;28;19960;-84
2022/04/29 10:50:29;;;;;;;;;;;;;;;20.23;41.86;102775.69;5056317;28;19928;-83
2022/04/29 10:52:59;;;;;;;;;;;;;;;20.22;41.84;102763.06;5054769;28;19917;-84
2022/04/29 10:55:24;;;;;;;;;;;;;;;20.22;42.18;102757.56;5056750;28;20356;-83
2022/04/29 10:57:50;;;;;;;;;;;;;;;20.19;42.08;102769.88;5055078;28;19963;-80
2022/04/29 11:00:16;;;;;;;;;;;;;;;20.19;42.14;102758.09;5054813;28;19927;-81
2022/04/29 11:02:41;;;;;;;;;;;;;;;20.20;41.92;102763.31;5054897;28;19916;-81
2022/04/29 11:05:08;;;;;;;;;;;;;;;20.10;42.41;102763.19;5054839;28;19932;-75
